No particular awareness of the weather is required.    There are no Weather-warnings


Meteo18 Weather Cam more information Meteo18 Weather Cam


Thunder radar more information blitzortung!


Rain radar more information rain snow radar


Visit our other weather sites:

Template documentation
and downloads

And another site



Weather Underground History page Text

Daily Summary for February 19, 2018 Units:  English    Metric   Both
« Previous Day
Next Day »
Daily Weekly Monthly Yearly Custom
  High: Low: Average:
Temperature: TemperatureC °F -1.9 °F 2 °F
Dew Point: DewpointC °F -2.3 °F 0.8 °F
Humidity: Humidity % 77 % 91 %
Wind Speed: WindSpeedKMH mph 0.0 mph 0.3 mph
Wind Gust: WindSpeedGustKMH mph - -
Wind:- - South
Pressure: PressurehPa in 1015.5 in -
Precipitation: 2.0 in    
Historical Graphs
 
 
Tabular Data for February 19, 2018
Time Temperature Dew Point Pressure Wind Wind Speed Wind Gust Humidity Rainfall Rate (Hourly)
TemperatureC °F DewpointC °F PressurehPa in Calm     Humidity % HourlyPrecipMM in
00:03 -0.6 °F -1.0 °F 1021.6 in Calm     97 % 0.0 in
00:09 -0.7 °F -1.1 °F 1021.6 in Calm     97 % 0.0 in
00:15 -0.8 °F -1.2 °F 1021.6 in Calm     97 % 0.0 in
00:21 -0.8 °F -1.2 °F 1021.6 in Calm     97 % 0.0 in
00:27 -0.9 °F -1.3 °F 1021.6 in Calm     97 % 0.0 in
00:33 -1.0 °F -1.4 °F 1021.6 in Calm     97 % 0.0 in
00:39 -1.1 °F -1.5 °F 1021.6 in Calm     97 % 0.0 in
00:45 -1.2 °F -1.6 °F 1021.6 in Calm     97 % 0.0 in
00:51 -1.4 °F -1.8 °F 1021.6 in Calm     97 % 0.0 in
00:57 -1.5 °F -1.9 °F 1021.6 in North 1.4 mph 3.2 mph 97 % 0.0 in
01:03 -1.5 °F -1.9 °F 1021.6 in NNE 1.4 mph 1.6 mph 97 % 0.0 in
01:09 -1.6 °F -2.0 °F 1021.6 in Calm   3.2 mph 97 % 0.0 in
01:15 -1.7 °F -2.1 °F 1021.2 in Calm   1.6 mph 97 % 0.0 in
01:22 -1.7 °F -2.1 °F 1021.2 in Calm     97 % 0.0 in
01:28 -1.7 °F -2.1 °F 1021.2 in Calm   1.6 mph 97 % 0.0 in
01:34 -1.6 °F -2.0 °F 1021.2 in Calm   1.6 mph 97 % 0.0 in
01:40 -1.6 °F -2.0 °F 1021.2 in Calm     97 % 0.0 in
01:46 -1.4 °F -1.8 °F 1021.2 in Calm     97 % 0.0 in
01:52 -1.5 °F -1.9 °F 1021.2 in Calm     97 % 0.0 in
01:58 -1.5 °F -1.9 °F 1021.2 in Calm     97 % 0.0 in
02:04 -1.6 °F -2.0 °F 1021.2 in Calm     97 % 0.0 in
02:10 -1.7 °F -2.1 °F 1021.2 in Calm     97 % 0.0 in
02:16 -1.3 °F -1.6 °F 1021.2 in Calm     98 % 0.0 in
02:22 -1.2 °F -1.5 °F 1021.2 in Calm     98 % 0.0 in
02:28 -1.2 °F -1.5 °F 1021.2 in Calm     98 % 0.0 in
02:34 -1.1 °F -1.4 °F 1021.2 in Calm     98 % 0.0 in
02:40 -1.1 °F -1.4 °F 1021.2 in Calm     98 % 0.0 in
02:46 -1.1 °F -1.4 °F 1020.9 in Calm     98 % 0.0 in
02:52 -1.1 °F -1.4 °F 1020.9 in Calm     98 % 0.0 in
02:59 -1.2 °F -1.5 °F 1020.9 in Calm     98 % 0.0 in
03:05 -1.1 °F -1.4 °F 1020.9 in Calm     98 % 0.0 in
03:11 -1.0 °F -1.3 °F 1020.9 in Calm     98 % 0.0 in
03:17 -0.9 °F -1.2 °F 1020.9 in Calm     98 % 0.0 in
03:23 -0.9 °F -1.2 °F 1020.9 in Calm     98 % 0.0 in
03:29 -1.1 °F -1.4 °F 1020.9 in Calm     98 % 0.0 in
03:35 -1.3 °F -1.6 °F 1020.5 in Calm     98 % 0.0 in
03:41 -1.5 °F -1.9 °F 1020.5 in Calm     97 % 0.0 in
03:47 -1.3 °F -1.6 °F 1020.5 in Calm     98 % 0.0 in
03:53 -1.0 °F -1.3 °F 1020.5 in Calm     98 % 0.0 in
03:59 -1.1 °F -1.4 °F 1020.5 in Calm     98 % 0.0 in
04:05 -1.1 °F -1.4 °F 1020.5 in Calm     98 % 0.0 in
04:11 -1.1 °F -1.4 °F 1020.5 in Calm     98 % 0.0 in
04:17 -1.2 °F -1.5 °F 1020.5 in Calm     98 % 0.0 in
04:23 -1.2 °F -1.5 °F 1020.5 in Calm     98 % 0.0 in
04:29 -1.3 °F -1.6 °F 1020.5 in Calm     98 % 0.0 in
04:35 -1.2 °F -1.5 °F 1020.5 in Calm     98 % 0.0 in
04:41 -1.2 °F -1.5 °F 1020.5 in Calm     98 % 0.0 in
04:47 -1.1 °F -1.4 °F 1020.5 in Calm     98 % 0.0 in
04:53 -1.1 °F -1.4 °F 1020.5 in Calm     98 % 0.0 in
04:59 -1.1 °F -1.4 °F 1020.5 in Calm     98 % 0.0 in
05:05 -1.1 °F -1.4 °F 1020.5 in Calm     98 % 0.0 in
05:12 -1.1 °F -1.4 °F 1020.5 in Calm     98 % 0.0 in
05:18 -1.1 °F -1.4 °F 1020.5 in Calm     98 % 0.0 in
05:24 -1.3 °F -1.7 °F 1020.5 in Calm     97 % 0.0 in
05:30 -1.4 °F -1.8 °F 1020.5 in Calm     97 % 0.0 in
05:36 -1.4 °F -1.8 °F 1020.5 in Calm     97 % 0.0 in
05:42 -1.4 °F -1.8 °F 1020.5 in Calm     97 % 0.0 in
05:48 -1.4 °F -1.8 °F 1020.5 in Calm     97 % 0.0 in
05:54 -1.4 °F -1.8 °F 1020.5 in Calm     97 % 0.0 in
06:00 -1.5 °F -1.9 °F 1020.5 in Calm     97 % 0.0 in
06:06 -1.6 °F -2.0 °F 1020.5 in Calm     97 % 0.0 in
06:12 -1.6 °F -2.0 °F 1020.5 in Calm     97 % 0.0 in
06:18 -1.6 °F -2.0 °F 1020.2 in Calm     97 % 0.0 in
06:24 -1.8 °F -2.2 °F 1020.2 in Calm     97 % 0.0 in
06:30 -1.8 °F -2.2 °F 1020.2 in Calm     97 % 0.0 in
06:36 -1.7 °F -2.1 °F 1020.2 in Calm     97 % 0.0 in
06:43 -1.7 °F -2.1 °F 1020.2 in Calm     97 % 0.0 in
06:49 -1.7 °F -2.1 °F 1020.2 in Calm     97 % 0.0 in
06:55 -1.8 °F -2.2 °F 1020.2 in Calm     97 % 0.0 in
07:01 -1.8 °F -2.2 °F 1020.5 in Calm     97 % 0.0 in
07:07 -1.8 °F -2.2 °F 1020.5 in Calm     97 % 0.0 in
07:13 -1.8 °F -2.2 °F 1020.5 in Calm     97 % 0.0 in
07:19 -1.8 °F -2.2 °F 1020.5 in Calm     97 % 0.0 in
07:25 -1.7 °F -2.1 °F 1020.5 in Calm     97 % 0.0 in
07:31 -1.7 °F -2.0 °F 1020.2 in Calm     98 % 0.0 in
07:37 -1.8 °F -2.2 °F 1020.2 in Calm     97 % 0.0 in
07:43 -1.7 °F -2.0 °F 1020.2 in Calm     98 % 0.0 in
07:49 -1.8 °F -2.2 °F 1020.2 in Calm     97 % 0.0 in
07:55 -1.7 °F -2.1 °F 1020.5 in Calm     97 % 0.0 in
08:01 -1.7 °F -2.0 °F 1020.5 in Calm     98 % 0.0 in
08:07 -1.7 °F -2.1 °F 1020.5 in Calm     97 % 0.0 in
08:13 -1.9 °F -2.3 °F 1020.5 in Calm     97 % 0.0 in
08:19 -1.9 °F -2.3 °F 1020.5 in Calm     97 % 0.0 in
08:25 -1.8 °F -2.2 °F 1020.5 in Calm     97 % 0.0 in
08:32 -1.7 °F -2.1 °F 1020.5 in Calm     97 % 0.0 in
08:38 -1.6 °F -2.0 °F 1020.5 in Calm     97 % 0.0 in
08:44 -1.7 °F -2.1 °F 1020.5 in Calm     97 % 0.0 in
08:50 -1.5 °F -1.9 °F 1020.2 in Calm     97 % 0.0 in
08:56 -1.4 °F -1.8 °F 1020.2 in Calm     97 % 0.0 in
09:02 -1.5 °F -1.9 °F 1020.2 in Calm     97 % 0.0 in
09:08 -1.4 °F -1.8 °F 1020.2 in Calm     97 % 0.0 in
09:14 -1.2 °F -1.6 °F 1020.2 in Calm     97 % 0.0 in
09:20 -0.6 °F -1.0 °F 1020.2 in Calm     97 % 0.0 in
09:26 -0.2 °F -0.6 °F 1020.2 in Calm     97 % 0.0 in
09:32 0.3 °F -0.1 °F 1020.2 in Calm     97 % 0.0 in
09:38 0.4 °F 0.0 °F 1020.2 in Calm     97 % 0.0 in
09:44 0.6 °F 0.2 °F 1020.2 in Calm     97 % 0.0 in
09:50 0.7 °F 0.1 °F 1020.2 in Calm     96 % 0.0 in
09:56 0.3 °F -0.4 °F 1020.2 in Calm     95 % 0.0 in
10:02 0.6 °F -0.1 °F 1020.2 in Calm     95 % 0.0 in
10:08 0.7 °F 0.0 °F 1020.2 in Calm     95 % 0.0 in
10:14 0.7 °F -0.2 °F 1020.2 in Calm     94 % 0.0 in
10:20 0.9 °F 0.2 °F 1019.9 in Calm     95 % 0.0 in
10:26 1.2 °F 0.2 °F 1019.9 in Calm     93 % 0.0 in
10:32 1.4 °F -0.1 °F 1019.9 in Calm     90 % 0.0 in
10:38 1.4 °F 0.2 °F 1019.9 in Calm     92 % 0.0 in
10:44 1.6 °F 0.1 °F 1019.9 in SSE 1.4 mph 3.2 mph 90 % 0.0 in
10:50 1.6 °F 0.0 °F 1019.5 in Calm   1.6 mph 89 % 0.0 in
10:56 1.4 °F -0.4 °F 1019.5 in SW 1.4 mph 1.6 mph 88 % 0.0 in
11:02 1.2 °F -0.4 °F 1019.5 in SSW 1.4 mph 3.2 mph 89 % 0.0 in
11:08 1.2 °F -0.3 °F 1019.5 in Calm   1.6 mph 90 % 0.0 in
11:14 1.3 °F -0.2 °F 1019.5 in SW 3.2 mph 3.2 mph 90 % 0.0 in
11:20 1.4 °F -0.2 °F 1019.5 in South 3.2 mph 3.2 mph 89 % 0.0 in
11:26 1.6 °F 0.1 °F 1019.5 in SSW 1.4 mph 4.8 mph 90 % 0.0 in
11:32 1.6 °F 0.0 °F 1019.5 in SW 4.7 mph 4.8 mph 89 % 0.0 in
11:38 1.9 °F 0.4 °F 1019.5 in SSE 1.4 mph 6.4 mph 90 % 0.0 in
11:44 2.2 °F 0.6 °F 1019.5 in SSW 1.4 mph 3.2 mph 89 % 0.0 in
11:50 2.1 °F 0.5 °F 1019.5 in SE 1.4 mph 6.4 mph 89 % 0.0 in
11:56 2.4 °F 0.8 °F 1019.5 in South 1.4 mph 1.6 mph 89 % 0.0 in
12:02 2.6 °F 0.8 °F 1019.5 in South 1.4 mph 9.7 mph 88 % 0.0 in
12:08 2.8 °F 1.0 °F 1019.5 in South 1.4 mph 3.2 mph 88 % 0.3 in
12:14 2.9 °F 1.0 °F 1019.5 in SSW 4.7 mph 4.8 mph 87 % 0.3 in
12:20 3.1 °F 1.1 °F 1019.5 in South 1.4 mph 4.8 mph 87 % 0.3 in
12:26 3.3 °F 1.5 °F 1019.5 in South 1.4 mph 3.2 mph 88 % 0.3 in
12:32 3.6 °F 1.5 °F 1019.5 in SSW 1.4 mph 6.4 mph 86 % 0.3 in
12:38 3.8 °F 1.7 °F 1019.2 in Calm   3.2 mph 86 % 0.3 in
12:44 4.0 °F 1.7 °F 1019.2 in SSE 3.2 mph 3.2 mph 85 % 0.3 in
12:50 4.1 °F 1.8 °F 1019.2 in Calm   4.8 mph 85 % 0.3 in
12:56 4.2 °F 1.7 °F 1019.2 in ESE 1.4 mph 3.2 mph 84 % 0.3 in
13:02 4.3 °F 1.7 °F 1018.8 in SW 1.4 mph 4.8 mph 83 % 0.3 in
13:08 4.5 °F 1.9 °F 1018.8 in Calm   3.2 mph 83 % 0.0 in
13:14 4.7 °F 2.1 °F 1018.8 in SW 1.4 mph 3.2 mph 83 % 0.0 in
13:20 4.8 °F 2.2 °F 1018.8 in Calm   3.2 mph 83 % 0.0 in
13:26 5.2 °F 2.7 °F 1018.8 in South 1.4 mph 3.2 mph 84 % 0.0 in
13:32 5.2 °F 2.4 °F 1018.8 in SSW 1.4 mph 3.2 mph 82 % 0.0 in
13:38 5.3 °F 2.5 °F 1018.8 in South 1.4 mph 1.6 mph 82 % 0.0 in
13:44 5.4 °F 2.4 °F 1018.8 in Calm   1.6 mph 81 % 0.0 in
13:50 5.6 °F 2.6 °F 1018.8 in Calm     81 % 0.0 in
13:56 5.7 °F 2.7 °F 1018.8 in SSE 1.4 mph 3.2 mph 81 % 0.0 in
14:02 5.8 °F 2.8 °F 1018.5 in Calm   1.6 mph 81 % 0.0 in
14:08 5.7 °F 2.7 °F 1018.5 in WSW 1.4 mph 3.2 mph 81 % 0.0 in
14:14 5.7 °F 2.7 °F 1018.5 in SW 3.2 mph 3.2 mph 81 % 0.0 in
14:20 5.6 °F 2.2 °F 1018.2 in Calm   1.6 mph 79 % 0.0 in
14:26 5.7 °F 2.5 °F 1018.2 in Calm   1.6 mph 80 % 0.0 in
14:33 6.0 °F 2.6 °F 1018.2 in Calm   1.6 mph 79 % 0.0 in
14:39 6.0 °F 2.5 °F 1018.2 in Calm   3.2 mph 78 % 0.0 in
14:45 5.9 °F 2.2 °F 1018.2 in SSW 1.4 mph 1.6 mph 77 % 0.0 in
14:51 5.8 °F 2.1 °F 1018.2 in Calm   1.6 mph 77 % 0.0 in
14:57 5.9 °F 2.4 °F 1018.2 in Calm   1.6 mph 78 % 0.0 in
15:03 6.1 °F 2.6 °F 1018.2 in WSW 1.4 mph 1.6 mph 78 % 0.0 in
15:09 6.0 °F 2.5 °F 1018.2 in Calm   1.6 mph 78 % 0.0 in
15:15 6.1 °F 2.4 °F 1017.8 in Calm   1.6 mph 77 % 0.0 in
15:21 6.0 °F 2.3 °F 1017.8 in Calm     77 % 0.0 in
15:27 6.2 °F 2.8 °F 1017.8 in Calm   1.6 mph 79 % 0.0 in
15:33 6.1 °F 2.4 °F 1017.8 in Calm   1.6 mph 77 % 0.0 in
15:39 6.1 °F 2.6 °F 1017.8 in Calm   3.2 mph 78 % 0.0 in
15:45 6.1 °F 2.6 °F 1017.8 in Calm     78 % 0.0 in
15:51 6.1 °F 2.6 °F 1017.8 in Calm     78 % 0.0 in
15:57 6.1 °F 2.7 °F 1017.8 in Calm     79 % 0.0 in
16:03 6.0 °F 2.5 °F 1017.8 in Calm     78 % 0.0 in
16:09 6.0 °F 2.8 °F 1017.5 in Calm     80 % 0.0 in
16:15 6.0 °F 2.8 °F 1017.8 in Calm   1.6 mph 80 % 0.0 in
16:21 5.9 °F 2.7 °F 1017.5 in Calm   1.6 mph 80 % 0.0 in
16:27 5.9 °F 2.7 °F 1017.5 in Calm   1.6 mph 80 % 0.0 in
16:33 5.8 °F 2.6 °F 1017.8 in Calm   1.6 mph 80 % 0.0 in
16:39 5.8 °F 2.6 °F 1017.5 in Calm     80 % 0.0 in
16:45 5.8 °F 2.8 °F 1017.8 in Calm     81 % 0.0 in
16:51 5.8 °F 2.8 °F 1017.5 in Calm     81 % 0.0 in
16:57 5.8 °F 2.8 °F 1017.5 in Calm     81 % 0.0 in
17:04 5.8 °F 2.8 °F 1017.5 in SSW 1.4 mph 1.6 mph 81 % 0.0 in
17:10 5.8 °F 2.6 °F 1017.5 in Calm   1.6 mph 80 % 0.0 in
17:16 5.8 °F 3.0 °F 1017.5 in Calm   1.6 mph 82 % 0.0 in
17:22 5.8 °F 3.0 °F 1017.5 in Calm   1.6 mph 82 % 0.0 in
17:28 5.8 °F 3.1 °F 1017.5 in Calm     83 % 0.0 in
17:34 5.8 °F 3.1 °F 1017.5 in Calm     83 % 0.0 in
17:40 5.8 °F 3.1 °F 1017.5 in Calm     83 % 0.0 in
17:46 5.7 °F 2.9 °F 1017.5 in Calm     82 % 0.0 in
17:52 5.7 °F 3.0 °F 1017.5 in Calm     83 % 0.0 in
17:58 5.7 °F 3.0 °F 1017.5 in Calm     83 % 0.0 in
18:04 5.6 °F 2.9 °F 1017.5 in Calm     83 % 0.0 in
18:10 5.6 °F 3.1 °F 1017.5 in Calm     84 % 0.0 in
18:16 5.4 °F 2.9 °F 1017.5 in Calm     84 % 0.0 in
18:22 5.4 °F 3.1 °F 1017.5 in Calm     85 % 0.0 in
18:28 5.3 °F 3.0 °F 1017.5 in Calm     85 % 0.0 in
18:34 5.3 °F 3.1 °F 1017.5 in Calm     86 % 0.0 in
18:40 5.2 °F 3.2 °F 1017.2 in Calm     87 % 0.0 in
18:46 5.1 °F 3.3 °F 1017.5 in Calm     88 % 0.0 in
18:53 5.1 °F 3.3 °F 1017.5 in Calm     88 % 0.0 in
18:59 5.1 °F 3.4 °F 1017.2 in Calm     89 % 0.0 in
19:05 5.0 °F 3.3 °F 1017.2 in Calm     89 % 0.3 in
19:11 4.9 °F 3.4 °F 1017.2 in Calm     90 % 0.3 in
19:17 4.8 °F 3.3 °F 1017.2 in Calm     90 % 0.3 in
19:23 4.8 °F 3.5 °F 1017.2 in Calm     91 % 0.3 in
19:29 4.7 °F 3.4 °F 1017.2 in Calm     91 % 0.3 in
19:35 4.7 °F 3.5 °F 1017.2 in Calm     92 % 0.3 in
19:41 4.6 °F 3.4 °F 1017.2 in SSW 1.4 mph 1.6 mph 92 % 0.3 in
19:47 4.6 °F 3.4 °F 1017.2 in Calm     92 % 0.3 in
19:53 4.6 °F 3.6 °F 1016.8 in Calm     93 % 0.3 in
19:59 4.6 °F 3.6 °F 1016.8 in Calm     93 % 0.3 in
20:05 4.6 °F 3.6 °F 1016.8 in Calm     93 % 0.0 in
20:11 4.6 °F 3.6 °F 1016.8 in Calm     93 % 0.3 in
20:17 4.5 °F 3.5 °F 1016.8 in Calm     93 % 0.3 in
20:23 4.5 °F 3.6 °F 1016.8 in Calm     94 % 0.3 in
20:29 4.4 °F 3.5 °F 1016.8 in Calm     94 % 0.3 in
20:35 4.4 °F 3.5 °F 1016.8 in Calm     94 % 0.3 in
20:41 4.4 °F 3.5 °F 1016.8 in Calm     94 % 0.3 in
20:47 4.3 °F 3.4 °F 1016.8 in Calm     94 % 0.3 in
20:53 4.3 °F 3.6 °F 1016.8 in Calm     95 % 0.3 in
20:59 4.3 °F 3.6 °F 1016.8 in Calm     95 % 0.3 in
21:05 4.3 °F 3.6 °F 1016.8 in Calm     95 % 0.3 in
21:11 4.2 °F 3.5 °F 1016.8 in Calm     95 % 0.3 in
21:17 4.2 °F 3.5 °F 1016.8 in Calm     95 % 0.3 in
21:23 4.2 °F 3.5 °F 1016.5 in Calm     95 % 0.3 in
21:29 4.2 °F 3.5 °F 1016.5 in Calm     95 % 0.3 in
21:35 4.2 °F 3.5 °F 1016.5 in Calm     95 % 0.3 in
21:41 4.2 °F 3.5 °F 1016.5 in Calm     95 % 0.3 in
21:47 4.2 °F 3.5 °F 1016.5 in Calm     95 % 0.3 in
21:53 4.2 °F 3.6 °F 1016.5 in Calm     96 % 0.3 in
21:59 4.2 °F 3.6 °F 1016.5 in Calm     96 % 0.3 in
22:05 4.2 °F 3.6 °F 1016.5 in Calm     96 % 0.5 in
22:11 4.2 °F 3.6 °F 1016.5 in Calm     96 % 0.3 in
22:17 4.2 °F 3.6 °F 1016.5 in Calm     96 % 0.3 in
22:23 4.2 °F 3.6 °F 1016.5 in Calm     96 % 0.3 in
22:29 4.1 °F 3.5 °F 1016.5 in Calm     96 % 0.5 in
22:35 4.1 °F 3.5 °F 1016.1 in Calm     96 % 0.5 in
22:41 4.1 °F 3.5 °F 1016.1 in Calm     96 % 0.5 in
22:47 4.1 °F 3.5 °F 1016.1 in Calm     96 % 0.5 in
22:53 4.1 °F 3.5 °F 1016.1 in Calm   1.6 mph 96 % 0.5 in
22:59 4.1 °F 3.5 °F 1016.1 in Calm   3.2 mph 96 % 0.5 in
23:05 4.1 °F 3.5 °F 1016.1 in Calm   1.6 mph 96 % 0.5 in
23:11 4.1 °F 3.5 °F 1016.1 in SSE 1.4 mph 3.2 mph 96 % 0.5 in
23:18 4.1 °F 3.5 °F 1015.8 in Calm   1.6 mph 96 % 0.5 in
23:24 4.0 °F 3.4 °F 1015.8 in SE 3.2 mph 3.2 mph 96 % 0.5 in
23:30 4.0 °F 3.4 °F 1015.8 in Calm   1.6 mph 96 % 0.5 in
23:36 4.0 °F 3.4 °F 1015.8 in Calm   1.6 mph 96 % 0.5 in
23:42 4.0 °F 3.4 °F 1015.5 in Calm   1.6 mph 96 % 0.5 in
23:48 4.0 °F 3.4 °F 1015.5 in Calm   1.6 mph 96 % 0.5 in
23:54 4.0 °F 3.4 °F 1015.8 in Calm     96 % 0.5 in
Meteo18
Compliments of Weather Underground - 4 mb

Script developed by  Jim McMurry - jmcmurry@mwt.net Adapted for the template by  Wim van der Kuil - Leuven-Template.eu

You find our weather info also at:

European Weather Network

Weather Underground

Equipment we use:

Weather-station
Davis Vue

Weather-program
Meteobridge

Weather-server
Raspberry PI 2 B+

Provider
1 and 1

Davis Vue

Meteobridge

Raspberry PI 2 B+

1 and 1